Time;durP1;ratioP1;P1;durP2;ratioP2;P2;SDS_P1;SDS_P2;PMS_P1;PMS_P2;Temp;Humidity;BMP_temperature;BMP_pressure;BME280_temperature;BME280_humidity;BME280_pressure;Samples;Min_cycle;Max_cycle;Signal;HPM_P1;HPM_P2
2023/12/16 00:09:14;;;;;;;14.5;7.4;;;;;;;1.42;80.48;;;;;
2023/12/16 00:20:14;;;;;;;14.5;7.4;;;;;;;1.5;80.22;;;;;
2023/12/16 00:31:14;;;;;;;14.8;7.1;;;;;;;1.54;79.85;;;;;
2023/12/16 00:41:14;;;;;;;14.8;7.1;;;;;;;1.58;79.73;;;;;
2023/12/16 00:51:14;;;;;;;14.8;7.1;;;;;;;1.58;79.94;;;;;
2023/12/16 01:01:14;;;;;;;14.7;7.1;;;;;;;1.75;79.29;;;;;
2023/12/16 01:12:14;;;;;;;14.7;7.1;;;;;;;1.86;79.07;;;;;
2023/12/16 01:22:14;;;;;;;14.7;7.1;;;;;;;1.95;78.59;;;;;
2023/12/16 01:32:14;;;;;;;11;7.9;;;;;;;1.99;78.35;;;;;
2023/12/16 01:43:14;;;;;;;11;7.9;;;;;;;1.91;79.6;;;;;
2023/12/16 01:54:14;;;;;;;11;7.9;;;;;;;2.01;80.17;;;;;
2023/12/16 02:05:14;;;;;;;20.2;10.5;;;;;;;2.05;80.26;;;;;
2023/12/16 02:15:14;;;;;;;20.2;10.5;;;;;;;1.92;80.86;;;;;
2023/12/16 02:26:14;;;;;;;26.1;14.6;;;;;;;2.02;80.93;;;;;
2023/12/16 02:37:14;;;;;;;26.1;14.6;;;;;;;2.06;80.25;;;;;
2023/12/16 02:47:14;;;;;;;26.1;14.6;;;;;;;2.08;80.09;;;;;
2023/12/16 02:58:14;;;;;;;21.4;11.5;;;;;;;2.22;78.79;;;;;
2023/12/16 03:09:14;;;;;;;21.4;11.5;;;;;;;2.34;78.27;;;;;
2023/12/16 03:19:14;;;;;;;21.4;11.5;;;;;;;2.5;77.89;;;;;
2023/12/16 03:29:14;;;;;;;17.6;9.9;;;;;;;2.5;78.08;;;;;
2023/12/16 03:39:14;;;;;;;17.6;9.9;;;;;;;2.62;78.66;;;;;
2023/12/16 03:49:14;;;;;;;17.6;9.9;;;;;;;2.49;80.12;;;;;
2023/12/16 04:00:14;;;;;;;14.1;9.3;;;;;;;2.49;80.87;;;;;
2023/12/16 04:11:14;;;;;;;14.1;9.3;;;;;;;2.51;81.74;;;;;
2023/12/16 04:22:14;;;;;;;14.1;9.3;;;;;;;2.59;82.45;;;;;
2023/12/16 04:33:14;;;;;;;16.3;8.9;;;;;;;2.69;82.98;;;;;
2023/12/16 04:43:14;;;;;;;16.3;8.9;;;;;;;2.75;83.26;;;;;
2023/12/16 04:53:14;;;;;;;16.3;8.9;;;;;;;2.85;83.48;;;;;
2023/12/16 05:04:14;;;;;;;12.2;6.2;;;;;;;3.02;83.35;;;;;
2023/12/16 05:15:14;;;;;;;12.2;6.2;;;;;;;3;83.63;;;;;
2023/12/16 05:26:14;;;;;;;10.9;5.6;;;;;;;3.07;83.38;;;;;
2023/12/16 05:36:14;;;;;;;10.9;5.6;;;;;;;3.16;83.08;;;;;
2023/12/16 05:47:14;;;;;;;10.9;5.6;;;;;;;3.17;82.86;;;;;
2023/12/16 05:57:14;;;;;;;9.6;4.1;;;;;;;3.25;82.45;;;;;
2023/12/16 06:08:15;;;;;;;9.6;4.1;;;;;;;3.38;82.56;;;;;
2023/12/16 06:18:14;;;;;;;9.6;4.1;;;;;;;3.36;82.76;;;;;
2023/12/16 06:28:14;;;;;;;12.1;6;;;;;;;3.35;83.04;;;;;
2023/12/16 06:39:14;;;;;;;12.1;6;;;;;;;3.42;83.47;;;;;
2023/12/16 06:50:14;;;;;;;12.1;6;;;;;;;3.42;83.85;;;;;
2023/12/16 07:01:14;;;;;;;11.8;6.2;;;;;;;3.58;83.73;;;;;
2023/12/16 07:11:14;;;;;;;11.8;6.2;;;;;;;3.65;83.98;;;;;
2023/12/16 07:21:15;;;;;;;11.8;6.2;;;;;;;3.72;84.45;;;;;
2023/12/16 07:31:14;;;;;;;11.4;5.9;;;;;;;3.79;84.81;;;;;
2023/12/16 07:42:14;;;;;;;11.4;5.9;;;;;;;3.66;85.49;;;;;
2023/12/16 07:52:16;;;;;;;11.4;5.9;;;;;;;3.66;85.96;;;;;
2023/12/16 08:03:14;;;;;;;8.7;5.1;;;;;;;3.59;85.95;;;;;
2023/12/16 08:13:14;;;;;;;8.7;5.1;;;;;;;3.66;85.25;;;;;
2023/12/16 08:24:14;;;;;;;10.5;5.6;;;;;;;3.79;84.94;;;;;
2023/12/16 08:34:14;;;;;;;10.5;5.6;;;;;;;3.96;84.34;;;;;
2023/12/16 08:45:14;;;;;;;10.5;5.6;;;;;;;4.16;84.08;;;;;
2023/12/16 08:55:14;;;;;;;13;6.2;;;;;;;4.24;83.84;;;;;
2023/12/16 09:05:16;;;;;;;13;6.2;;;;;;;4.44;82.83;;;;;
2023/12/16 09:15:15;;;;;;;13;6.2;;;;;;;4.59;82.5;;;;;
2023/12/16 09:25:14;;;;;;;12.4;6.8;;;;;;;4.65;82.25;;;;;
2023/12/16 09:36:14;;;;;;;12.4;6.8;;;;;;;4.94;81.59;;;;;
2023/12/16 09:46:14;;;;;;;12.4;6.8;;;;;;;5.07;81.19;;;;;
2023/12/16 09:57:14;;;;;;;12.8;7.1;;;;;;;5.08;81.03;;;;;
2023/12/16 10:08:14;;;;;;;12.8;7.1;;;;;;;5.1;81.46;;;;;
2023/12/16 10:18:14;;;;;;;12.8;7.1;;;;;;;5.16;81.89;;;;;
2023/12/16 10:29:14;;;;;;;14;7.1;;;;;;;5.26;82.32;;;;;
2023/12/16 10:40:14;;;;;;;14;7.1;;;;;;;5.22;82.04;;;;;
2023/12/16 10:50:15;;;;;;;14;7.1;;;;;;;5.32;82.14;;;;;
2023/12/16 11:01:14;;;;;;;13.8;7.9;;;;;;;5.4;81.05;;;;;
2023/12/16 11:12:14;;;;;;;13.8;7.9;;;;;;;5.49;80.17;;;;;
2023/12/16 11:22:15;;;;;;;13.8;7.9;;;;;;;5.73;79.77;;;;;
2023/12/16 11:33:14;;;;;;;8.4;4.7;;;;;;;5.75;80.09;;;;;
2023/12/16 11:44:14;;;;;;;8.4;4.7;;;;;;;5.75;79.71;;;;;
2023/12/16 11:54:14;;;;;;;11.5;5.9;;;;;;;5.94;79.81;;;;;
2023/12/16 12:04:14;;;;;;;11.5;5.9;;;;;;;5.88;79.68;;;;;
2023/12/16 12:14:14;;;;;;;11.5;5.9;;;;;;;6.06;79.37;;;;;
2023/12/16 12:25:15;;;;;;;11.7;6.6;;;;;;;6.01;78.69;;;;;
2023/12/16 12:35:14;;;;;;;11.7;6.6;;;;;;;6.08;78.81;;;;;
2023/12/16 12:45:14;;;;;;;11.7;6.6;;;;;;;6.01;78.73;;;;;
2023/12/16 12:56:14;;;;;;;14.3;7.4;;;;;;;5.94;78.33;;;;;
2023/12/16 13:06:14;;;;;;;14.3;7.4;;;;;;;5.77;78.93;;;;;
2023/12/16 13:16:14;;;;;;;14.3;7.4;;;;;;;5.77;79.16;;;;;
2023/12/16 13:26:14;;;;;;;13.1;7;;;;;;;5.7;79.51;;;;;
2023/12/16 13:37:14;;;;;;;13.1;7;;;;;;;5.61;80.46;;;;;
2023/12/16 13:47:14;;;;;;;13.1;7;;;;;;;5.63;81.06;;;;;
2023/12/16 13:58:14;;;;;;;11.5;6;;;;;;;5.48;81.79;;;;;
2023/12/16 14:08:14;;;;;;;11.5;6;;;;;;;5.32;82.54;;;;;
2023/12/16 14:19:14;;;;;;;11.5;6;;;;;;;5.48;82.37;;;;;
2023/12/16 14:29:14;;;;;;;12.2;6.4;;;;;;;5.38;82.92;;;;;
2023/12/16 14:40:14;;;;;;;12.2;6.4;;;;;;;5.22;84.09;;;;;
2023/12/16 14:51:14;;;;;;;12.2;6.4;;;;;;;5.18;84.17;;;;;
2023/12/16 15:02:15;;;;;;;13.3;9;;;;;;;5.16;84.59;;;;;
2023/12/16 15:12:14;;;;;;;13.3;9;;;;;;;4.94;85.84;;;;;
2023/12/16 15:22:14;;;;;;;13.3;9;;;;;;;4.83;86.52;;;;;
2023/12/16 15:32:14;;;;;;;14.2;8.5;;;;;;;4.68;87.45;;;;;
2023/12/16 15:43:14;;;;;;;14.2;8.5;;;;;;;4.65;86.93;;;;;
2023/12/16 15:54:14;;;;;;;15.6;9.4;;;;;;;4.75;86.24;;;;;
2023/12/16 16:04:14;;;;;;;15.6;9.4;;;;;;;4.8;85.78;;;;;
2023/12/16 16:15:14;;;;;;;15.6;9.4;;;;;;;4.76;85.92;;;;;
2023/12/16 16:25:14;;;;;;;19.1;9.5;;;;;;;4.89;85.27;;;;;
2023/12/16 16:35:14;;;;;;;19.1;9.5;;;;;;;4.98;85.19;;;;;
2023/12/16 16:46:16;;;;;;;19.1;9.5;;;;;;;4.92;84.83;;;;;
2023/12/16 16:56:14;;;;;;;15;9.4;;;;;;;4.78;85.15;;;;;
2023/12/16 17:06:15;;;;;;;15;9.4;;;;;;;4.87;84.99;;;;;
2023/12/16 17:16:15;;;;;;;15;9.4;;;;;;;4.82;85;;;;;
2023/12/16 17:26:16;;;;;;;18.2;10.4;;;;;;;4.87;84.57;;;;;
2023/12/16 17:36:14;;;;;;;18.2;10.4;;;;;;;4.91;84.59;;;;;
2023/12/16 17:46:15;;;;;;;18.2;10.4;;;;;;;4.76;84.88;;;;;
2023/12/16 17:56:14;;;;;;;15.7;9.6;;;;;;;4.87;84.53;;;;;
2023/12/16 18:06:15;;;;;;;15.7;9.6;;;;;;;4.93;83.98;;;;;
2023/12/16 18:17:14;;;;;;;15.7;9.6;;;;;;;4.83;83.74;;;;;
2023/12/16 18:28:14;;;;;;;15.4;9.1;;;;;;;4.89;82.97;;;;;
2023/12/16 18:38:15;;;;;;;15.4;9.1;;;;;;;4.89;82.79;;;;;
2023/12/16 18:48:15;;;;;;;15.4;9.1;;;;;;;4.85;82.56;;;;;
2023/12/16 18:59:15;;;;;;;13.7;8.1;;;;;;;4.91;82.41;;;;;
2023/12/16 19:10:14;;;;;;;13.7;8.1;;;;;;;4.91;82.17;;;;;
2023/12/16 19:21:14;;;;;;;13.7;8.1;;;;;;;4.91;82.05;;;;;
2023/12/16 19:31:14;;;;;;;16.5;9.3;;;;;;;4.88;81.88;;;;;
2023/12/16 19:42:15;;;;;;;16.5;9.3;;;;;;;4.86;82.08;;;;;
2023/12/16 19:53:14;;;;;;;24.9;11.8;;;;;;;4.79;82.31;;;;;
2023/12/16 20:03:15;;;;;;;24.9;11.8;;;;;;;4.81;82.08;;;;;
2023/12/16 20:13:14;;;;;;;24.9;11.8;;;;;;;4.72;82.17;;;;;
2023/12/16 20:24:15;;;;;;;17.1;9.4;;;;;;;4.76;81.84;;;;;
2023/12/16 20:35:14;;;;;;;17.1;9.4;;;;;;;4.81;81.67;;;;;
2023/12/16 20:45:14;;;;;;;17.1;9.4;;;;;;;4.74;81.25;;;;;
2023/12/16 20:56:14;;;;;;;17.6;10.9;;;;;;;4.58;80.86;;;;;
2023/12/16 21:06:14;;;;;;;17.6;10.9;;;;;;;4.37;80.76;;;;;
2023/12/16 21:16:15;;;;;;;17.6;10.9;;;;;;;4.2;81.09;;;;;
2023/12/16 21:27:15;;;;;;;14.6;8.6;;;;;;;4.24;80.51;;;;;
2023/12/16 21:37:15;;;;;;;14.6;8.6;;;;;;;4.17;80.9;;;;;
2023/12/16 21:48:14;;;;;;;14.6;8.6;;;;;;;4.08;81.18;;;;;
2023/12/16 21:58:15;;;;;;;15.5;8.8;;;;;;;3.95;81.28;;;;;
2023/12/16 22:09:15;;;;;;;15.5;8.8;;;;;;;3.95;81.07;;;;;
2023/12/16 22:20:14;;;;;;;15.5;8.8;;;;;;;4.07;80.08;;;;;
2023/12/16 22:30:15;;;;;;;15.3;8.1;;;;;;;3.99;80.34;;;;;
2023/12/16 22:41:15;;;;;;;15.3;8.1;;;;;;;4;80.27;;;;;
2023/12/16 22:51:15;;;;;;;15.3;8.1;;;;;;;4.03;80.11;;;;;
2023/12/16 23:01:15;;;;;;;11.1;6.4;;;;;;;4.07;80.11;;;;;
2023/12/16 23:11:15;;;;;;;11.1;6.4;;;;;;;4.17;79.77;;;;;
2023/12/16 23:22:15;;;;;;;11.1;6.4;;;;;;;4.12;79.73;;;;;
2023/12/16 23:32:15;;;;;;;11.5;5.8;;;;;;;3.97;80.06;;;;;
2023/12/16 23:42:15;;;;;;;11.5;5.8;;;;;;;3.76;80.65;;;;;
2023/12/16 23:53:15;;;;;;;9.8;5.1;;;;;;;3.79;80.62;;;;;
